Luis Mena

Recruteur en chef - Cobresal
6 Janv 2028
Jeudi
Processus

Personnalité

Adaptabilité (3) Ambition (4) Controverse (1) Loyauté (5) Pression (2) Professionnalisme (7) Sportivité (19) Tempérament (8)

Profil

Style d'entraînement Démocratique
Diplôme Continental B
Détermination 4
Gestion des joueurs 9
Motivation 4
Discipline 4
Satisfaction professionnelle
100%
Fatigue
0%
Rôle Recruteur en chef
Salaire 46.1K p/s
Contrat 14.03.2029

Performance

Comportement Bon
Efficacité de l'entraînement
23%
Développement des joueurs
30%
Prévention des blessures
50%
Mise en place tactique
25%

Événements récents

A évalué un joueur maintenant
A participé à une réunion de recrutement maintenant
A recommandé une cible de transfert maintenant
A recommandé une cible de transfert maintenant
A participé à une réunion de recrutement 7j
A recommandé une cible de transfert 7j
A recommandé une cible de transfert 7j
A présenté un dossier au conseil 14j

Suivi en cours

130
Joueur Club Statut Capacité Confiance Observé Dernière observation Dernier vote
Tomás Fernández Aldosivi Actif 114 / 113 40% 1 05.01.2028 -
Carlos Torres Orenburg Actif 95 / 110 40% 1 05.01.2028 -
Martín Ojeda Orlando City Actif 128 / 139 40% 1 05.01.2028 -
Sebastián Cocimano Nueva Chicago Actif 120 / 114 40% 1 04.01.2028 -
Sebastián de Marco Fenix Actif 101 / 96 40% 1 04.01.2028 -
Augusto Berrondo Tristán Suárez Actif 108 / 113 40% 1 04.01.2028 -
Esteban da Silva Racing Actif 116 / 113 40% 1 03.01.2028 -
Facundo Krüger FK Senica Actif 128 / 119 40% 1 03.01.2028 -
Juan Rocca Gimnasia y Tiro Actif 105 / 115 40% 1 03.01.2028 -
Joaquín Muñoz O'Higgins Négociation 95 / 94 69% 1 20.12.2027 Approuver
Santiago Gutiérrez Alvarado Actif 108 / 97 40% 1 30.11.2027 -
Alejo Dramisino Atlanta Actif 122 / 128 40% 1 30.11.2027 -
José Mercado Union Magdalena Actif 108 / 103 40% 1 30.11.2027 -
Goga Kobiashvili Veres Négociation 92 / 92 66% 1 01.06.2027 Approuver
Edin Višća Progreso Négociation 119 / 119 66% 1 01.06.2027 Approuver
Aidomo Emakhu Oxford United Actif 128 / 136 40% 2 31.05.2027 -
Alassana Jatta Notts County Actif 96 / 118 40% 2 31.05.2027 -
Jaze Kabia Grimsby Town Actif 98 / 86 40% 3 30.05.2027 -
Aaron Drinan Swindon Town Actif 117 / 114 40% 5 29.05.2027 -
Ronan Hale Gillingham Actif 102 / 118 40% 5 29.05.2027 -
Yousef Salech Cardiff City Actif 126 / 124 40% 6 27.05.2027 -
Petar Musa Adana Demirspor Actif 131 / 156 40% 2 27.05.2027 -
Richard Koné Queens Park Rangers Actif 120 / 125 40% 5 26.05.2027 -
Santiago Pierotti Lecce Actif 135 / 136 40% 3 26.05.2027 -
Shayne Lavery Cambridge United Actif 118 / 99 40% 5 25.05.2027 -
Christian Saydee Wigan Athletic Actif 106 / 122 40% 1 25.05.2027 -
Sam Nombe Milton Keynes Dons Actif 101 / 109 40% 7 24.05.2027 -
Giacomo Zecca Torres Actif 110 / 94 40% 2 23.05.2027 -
Malik Mothersille Stockport County Actif 118 / 122 40% 3 22.05.2027 -
Jonathan Gyan Liberty Professionals Actif 90 / 96 40% 2 22.05.2027 -
Aaron Collins Milton Keynes Dons Actif 121 / 132 40% 2 21.05.2027 -
Daniel Udoh Salford City Actif 109 / 111 40% 4 21.05.2027 -
Tyreece Campbell Charlton Athletic Actif 121 / 107 40% 6 18.05.2027 -
Kelly Saravanan Salford City Actif 112 / 110 40% 3 18.05.2027 -
Manuel Ospina Cortulua Actif 131 / 132 40% 1 18.05.2027 -
Zian Flemming Ipswich Town Actif 125 / 140 40% 4 17.05.2027 -
Josh Koroma Leyton Orient Actif 105 / 97 40% 4 16.05.2027 -
Kyle Wootton Stockport County Actif 109 / 115 40% 3 16.05.2027 -
Adam Idah Swansea City Actif 130 / 116 40% 3 10.05.2027 -
Bojan Radulović Huddersfield Town Actif 113 / 101 40% 4 09.05.2027 -
Andri Guðjohnsen Blackburn Rovers Actif 121 / 137 40% 1 08.05.2027 -
Lorent Tolaj Plymouth Argyle Actif 117 / 104 40% 6 06.05.2027 -
Marcus Browne AFC Wimbledon Actif 111 / 112 40% 4 06.05.2027 -
Matteo Rover Reggiana Actif 113 / 120 40% 1 06.05.2027 -
Dom Ballard Leyton Orient Actif 133 / 139 40% 6 05.05.2027 -
Marezi Portsmouth Actif 115 / 121 40% 3 05.05.2027 -
Kwame Opoku Asante Kotoko Actif 108 / 102 40% 6 03.05.2027 -
Bismark Asante Ashanti Gold Actif 97 / 84 40% 1 30.04.2027 -
Silvio Merkaj Vicenza Actif 125 / 100 40% 1 29.04.2027 -
Giuseppe Di Serio Spezia Actif 123 / 132 40% 2 28.04.2027 -
Stephen Humphrys Bradford City Actif 115 / 94 40% 1 28.04.2027 -
Ekain Orobengoa Real Sociedad Actif 106 / 105 40% 6 25.04.2027 -
Victor Torp Coventry City Actif 139 / 124 40% 1 25.04.2027 -
Lee Bonis Chesterfield Actif 110 / 98 40% 1 24.04.2027 -
Harry Leonard Peterborough United Actif 115 / 128 40% 2 21.04.2027 -
Will Evans Mansfield Town Actif 87 / 84 40% 1 21.04.2027 -
Martin Sekulić Ural Actif 118 / 119 40% 5 17.04.2027 -
Robert Mizo Ashanti Gold Actif 100 / 100 40% 3 17.04.2027 -
Adolfo Muñoz Ruch Actif 109 / 111 40% 5 11.04.2027 -
Callum Lang Preston Actif 106 / 108 40% 1 11.04.2027 -
Louis Appéré Cambridge United Actif 104 / 113 40% 3 10.04.2027 -
Claudio Villagra Volos NPS Actif 103 / 99 40% 4 09.04.2027 -
Jayden Wareham Barnet Actif 98 / 105 40% 3 08.04.2027 -
Bradley Fink Wycombe Wanderers Actif 97 / 103 40% 3 07.04.2027 -
Lewis McCann Fleetwood Town Actif 110 / 87 40% 1 07.04.2027 -
Job Ochieng Real Sociedad Actif 103 / 108 40% 4 04.04.2027 -
Guilherme Ankaragucu Actif 140 / 112 40% 2 03.04.2027 -
Rayan Bournemouth Actif 137 / 127 40% 1 03.04.2027 -
Harry Cornick AFC Wimbledon Actif 100 / 115 40% 3 31.03.2027 -
Adnan Courtois KV Oostende Actif 137 / 132 40% 6 28.03.2027 -
Callum Stead Barnet Actif 84 / 95 40% 1 25.03.2027 -
Rocco Vata Watford Actif 112 / 142 40% 1 24.03.2027 -
Tomás González Piast Actif 128 / 124 40% 2 23.03.2027 -
Isaac Essien WAFA Actif 98 / 100 40% 3 22.03.2027 -
Toni Fruk KV Mechelen Actif 142 / 138 40% 1 17.03.2027 -
Friday Ubong Ashanti Gold Actif 107 / 91 40% 1 16.03.2027 -
Niall Ennis Blackpool Actif 113 / 119 40% 5 12.03.2027 -
Danyil Alefirenko Chornomorets Actif 122 / 108 40% 4 12.03.2027 -
Davis Keillor-Dunn Wrexham Actif 129 / 127 40% 4 10.03.2027 -
Iwan Morgan Grimsby Town Actif 114 / 98 40% 2 08.03.2027 -
Elijah Adebayo Luton Town Actif 137 / 106 40% 2 02.03.2027 -
Mees Rijks Bristol Rovers Actif 107 / 101 40% 3 01.03.2027 -
Hany Mukhtar Spezia Actif 140 / 151 40% 2 28.02.2027 -
Pedro Marques Apollon Actif 114 / 123 40% 1 24.02.2027 -
Dany Mota Monza Actif 133 / 146 40% 1 22.02.2027 -
Nathan Ordaz Metalist Actif 123 / 115 40% 2 17.02.2027 -
Andrés Dieppa Metalurh Zaporizhzhia Actif 84 / 96 40% 1 15.02.2027 -
Mathias Jørgensen Blackburn Rovers Actif 123 / 134 40% 1 15.02.2027 -
Slobodan Tedić Akron Actif 116 / 113 40% 1 13.02.2027 -
Erik Prekop Gornik Zabrze Actif 142 / 128 40% 1 12.02.2027 -
Edarlyn Reyes Arsenal Tula Actif 109 / 122 40% 1 09.02.2027 -
Samuel Kalu Botev Plovdiv Actif 112 / 105 40% 1 05.02.2027 -
Vyacheslav Grulev Nizhniy Novgorod Actif 117 / 123 40% 2 02.02.2027 -
Róbert Polievka MTK Budapest Actif 109 / 124 40% 1 02.02.2027 -
Sam Bell Bristol City Actif 108 / 105 40% 2 01.02.2027 -
Everton Bala Levski Actif 126 / 116 40% 1 01.02.2027 -
Nicolás Luján Panserraikos Actif 87 / 108 40% 1 31.01.2027 -
Leandro Godoy CSKA Sofia Actif 123 / 121 40% 1 31.01.2027 -
Abdallah Gning Banik Ostrava Actif 107 / 115 40% 1 28.01.2027 -
Bruno Gomes Valletta Actif 95 / 106 40% 1 28.01.2027 -
Agustín Módica Gimnasia y Esgrima Actif 116 / 113 40% 1 25.01.2027 -
Juan Cruz Martins Jihlava Actif 108 / 118 40% 2 24.01.2027 -
Lincoln Spartak Subotica Actif 99 / 103 40% 1 24.01.2027 -
Nicolás Contín MFK Ruzomberok Actif 128 / 113 40% 1 23.01.2027 -
Kenan Dervišagić Floriana Actif 110 / 86 40% 1 23.01.2027 -
Alexandr Yushin Torpedo Moscow Actif 112 / 95 40% 1 22.01.2027 -
Rodrigo Bogarín Barracas Central Actif 117 / 125 40% 1 20.01.2027 -
Robert Murić Floriana Actif 92 / 114 40% 1 17.01.2027 -
Carlos Guerreño Slavia Sofia Actif 114 / 104 40% 1 17.01.2027 -
Yeangel Montero Naxxar Lions Actif 116 / 106 40% 1 15.01.2027 -
Gabriel Charpentier Cracovia Actif 120 / 99 40% 1 13.01.2027 -
Santiago Rodríguez Gimnasia y Esgrima Actif 116 / 109 40% 1 06.01.2027 -
Alan Soñora Cerro Porteno Actif 116 / 113 40% 2 09.08.2026 -
Mauricio Márquez Caracas Actif 99 / 104 40% 1 09.08.2026 -
Capa Ceuta Actif 105 / 84 40% 1 09.08.2026 -
Lucas Sanabria Libertad Actif 117 / 100 40% 1 08.08.2026 -
Alejandro Samudio Nacional Actif 107 / 116 40% 1 08.08.2026 -
George Ayine Metropolitanos Actif 98 / 100 40% 1 07.08.2026 -
Marcos Cuenca Zaragoza Actif 95 / 114 40% 1 07.08.2026 -
Héber García Portuguesa Actif 101 / 89 40% 1 07.08.2026 -
Jean Franco Fuentes Metropolitanos Actif 107 / 113 40% 1 06.08.2026 -
Nelson Cabanillas Melgar Actif 112 / 111 40% 1 06.08.2026 -
Luis Guevara Real Cartagena Actif 99 / 109 40% 1 04.08.2026 -
Gonzalo Errecalde Gimnasia La Plata Actif 117 / 119 40% 1 03.08.2026 -
Mateo Seoane Gimnasia La Plata Actif 118 / 119 40% 1 03.08.2026 -
Maximiliano Luayza Koot Tristán Suárez Actif 104 / 101 40% 1 02.08.2026 -
Gino Barbieri Almagro Actif 103 / 106 40% 1 02.08.2026 -
David López Mallorca Actif 120 / 104 40% 1 02.08.2026 -
Paolo Reyna Universitario Actif 118 / 128 40% 1 01.08.2026 -
Fermín Antonini Gimnasia y Esgrima Actif 110 / 117 40% 1 01.08.2026 -